Time;durP1;ratioP1;P1;durP2;ratioP2;P2;SDS_P1;SDS_P2;PMS_P1;PMS_P2;Temp;Humidity;BMP_temperature;BMP_pressure;BME280_temperature;BME280_humidity;BME280_pressure;Samples;Min_cycle;Max_cycle;Signal;HPM_P1;HPM_P2
2021/12/07 00:00:51;;;;;;;39.37;17.80;;;1.00;99.90;;;;;;5070473;28;20070;-67
2021/12/07 00:03:19;;;;;;;42.17;17.70;;;0.90;99.90;;;;;;5090953;28;20082;-67
2021/12/07 00:05:47;;;;;;;43.97;17.57;;;0.90;99.90;;;;;;5083992;28;20052;-67
2021/12/07 00:08:14;;;;;;;36.30;17.93;;;0.80;99.90;;;;;;5070598;28;20056;-67
2021/12/07 00:10:42;;;;;;;42.10;18.80;;;0.70;99.90;;;;;;5070624;28;20071;-67
2021/12/07 00:13:10;;;;;;;39.00;19.17;;;0.80;99.90;;;;;;5070144;28;20088;-67
2021/12/07 00:15:37;;;;;;;44.97;18.93;;;0.80;99.90;;;;;;5069332;28;20051;-67
2021/12/07 00:18:04;;;;;;;39.77;18.53;;;0.80;99.90;;;;;;5069865;28;20048;-67
2021/12/07 00:20:31;;;;;;;40.53;17.87;;;0.80;99.90;;;;;;5070128;28;20424;-67
2021/12/07 00:23:00;;;;;;;42.23;19.77;;;0.80;99.90;;;;;;5069375;28;20052;-67
2021/12/07 00:25:28;;;;;;;41.50;19.47;;;0.80;99.90;;;;;;5069353;28;20044;-67
2021/12/07 00:27:56;;;;;;;40.03;19.00;;;0.80;99.90;;;;;;5069530;28;20512;-67
2021/12/07 00:30:28;;;;;;;43.53;19.13;;;0.80;99.90;;;;;;5069520;28;20412;-67
2021/12/07 00:33:08;;;;;;;41.50;19.83;;;0.80;99.90;;;;;;5069281;28;20057;-67
2021/12/07 00:35:36;;;;;;;41.40;18.70;;;0.70;99.90;;;;;;5068799;28;20064;-67
2021/12/07 00:38:05;;;;;;;37.23;18.03;;;0.80;99.90;;;;;;5069515;28;20049;-67
2021/12/07 00:40:32;;;;;;;40.40;19.67;;;0.70;99.90;;;;;;5069973;28;20084;-67
2021/12/07 00:43:01;;;;;;;38.63;18.30;;;0.70;99.90;;;;;;5069430;28;20045;-67
2021/12/07 00:45:31;;;;;;;36.73;17.53;;;0.70;99.90;;;;;;5069222;28;20053;-68
2021/12/07 00:47:59;;;;;;;45.93;18.80;;;0.70;99.90;;;;;;5069602;28;20565;-67
2021/12/07 00:50:28;;;;;;;43.93;19.90;;;0.70;99.90;;;;;;5079183;28;20044;-67
2021/12/07 00:52:57;;;;;;;42.63;18.63;;;0.70;99.90;;;;;;5077819;28;20053;-67
2021/12/07 00:55:28;;;;;;;37.83;18.27;;;0.70;99.90;;;;;;5082291;28;20048;-68
2021/12/07 00:57:58;;;;;;;38.37;17.43;;;0.70;99.90;;;;;;5069682;28;20554;-67
2021/12/07 01:00:28;;;;;;;35.77;17.03;;;0.70;99.90;;;;;;5069834;28;20499;-67
2021/12/07 01:02:55;;;;;;;32.80;15.40;;;0.80;99.90;;;;;;5069561;28;20122;-67
2021/12/07 01:05:28;;;;;;;33.90;15.53;;;0.80;99.90;;;;;;5068981;28;20052;-67
2021/12/07 01:08:13;;;;;;;31.37;16.13;;;0.90;99.90;;;;;;5069488;28;20048;-67
2021/12/07 01:24:43;;;;;;;31.93;15.50;;;0.90;99.90;;;;;;5069067;28;20059;-67
2021/12/07 01:27:19;;;;;;;36.43;16.90;;;0.90;99.90;;;;;;5069051;28;20181;-67
2021/12/07 01:29:51;;;;;;;33.30;15.77;;;0.90;99.90;;;;;;5069103;28;20064;-67
2021/12/07 01:32:33;;;;;;;32.83;15.70;;;0.90;99.90;;;;;;5069199;28;20060;-67
2021/12/07 01:35:41;;;;;;;37.03;16.83;;;0.90;99.90;;;;;;5068355;28;20321;-67
2021/12/07 01:38:34;;;;;;;29.67;15.15;;;0.90;99.90;;;;;;5068927;28;20129;-67
2021/12/07 01:41:18;;;;;;;30.07;14.53;;;0.90;99.90;;;;;;5069387;28;20057;-67
2021/12/07 01:44:16;;;;;;;33.30;16.33;;;0.90;99.90;;;;;;5068504;28;20500;-67
2021/12/07 01:47:04;;;;;;;29.53;14.80;;;0.90;99.90;;;;;;5071592;28;20113;-67
2021/12/07 01:57:56;;;;;;;34.23;16.23;;;0.90;99.90;;;;;;5072299;28;20439;-67
2021/12/07 02:00:25;;;;;;;32.63;16.83;;;1.00;99.90;;;;;;5072469;28;20529;-67
2021/12/07 02:02:52;;;;;;;32.00;14.07;;;1.00;99.90;;;;;;5072356;28;20067;-67
2021/12/07 02:05:20;;;;;;;35.00;15.90;;;1.00;99.90;;;;;;5071892;28;20076;-67
2021/12/07 02:07:47;;;;;;;33.63;15.57;;;1.00;99.90;;;;;;5072485;28;20592;-67
2021/12/07 02:10:18;;;;;;;31.57;15.33;;;1.00;99.90;;;;;;5072608;28;20052;-67
2021/12/07 02:12:47;;;;;;;33.90;16.50;;;1.00;99.90;;;;;;5072891;28;20056;-67
2021/12/07 02:15:17;;;;;;;31.17;14.97;;;1.00;99.90;;;;;;5072505;28;20105;-67
2021/12/07 02:17:44;;;;;;;29.83;14.17;;;1.10;99.90;;;;;;5071820;28;20072;-67
2021/12/07 02:20:14;;;;;;;35.30;15.03;;;1.10;99.90;;;;;;5072287;28;20052;-67
2021/12/07 02:22:43;;;;;;;31.40;13.70;;;1.10;99.90;;;;;;5072007;28;20044;-67
2021/12/07 02:25:12;;;;;;;31.53;14.73;;;1.10;99.90;;;;;;5071550;28;20144;-67
2021/12/07 02:27:39;;;;;;;31.53;15.53;;;1.20;99.90;;;;;;5072216;28;20044;-67
2021/12/07 02:30:09;;;;;;;30.00;14.33;;;1.20;99.90;;;;;;5072449;28;20053;-67
2021/12/07 02:32:36;;;;;;;29.83;14.80;;;1.20;99.90;;;;;;5072501;28;20081;-67
2021/12/07 02:35:04;;;;;;;29.97;14.47;;;1.20;99.90;;;;;;5071330;28;20094;-67
2021/12/07 02:37:33;;;;;;;27.00;13.97;;;1.20;99.90;;;;;;5072063;28;20327;-67
2021/12/07 02:40:05;;;;;;;30.47;15.13;;;1.20;99.90;;;;;;5071562;28;20455;-67
2021/12/07 02:42:32;;;;;;;33.00;14.33;;;1.20;99.90;;;;;;5071473;28;20109;-67
2021/12/07 02:44:59;;;;;;;30.10;14.20;;;1.20;99.90;;;;;;5070718;28;20048;-67
2021/12/07 02:47:26;;;;;;;29.33;14.57;;;1.10;99.90;;;;;;5071656;28;20102;-67
2021/12/07 02:49:54;;;;;;;35.50;15.30;;;1.10;99.90;;;;;;5071375;28;20055;-67
2021/12/07 02:52:21;;;;;;;30.43;14.43;;;1.00;99.90;;;;;;5071567;28;20044;-67
2021/12/07 02:54:50;;;;;;;36.47;17.00;;;0.90;99.90;;;;;;5070555;28;20045;-67
2021/12/07 02:57:21;;;;;;;29.67;15.47;;;0.90;99.90;;;;;;5070659;28;20057;-67
2021/12/07 02:59:57;;;;;;;33.40;15.80;;;0.90;99.90;;;;;;5071446;28;20062;-67
2021/12/07 03:02:24;;;;;;;31.77;15.47;;;0.90;99.90;;;;;;5071384;28;20546;-67
2021/12/07 03:04:59;;;;;;;31.13;15.43;;;0.90;99.90;;;;;;5070629;28;20060;-67
2021/12/07 03:07:42;;;;;;;31.40;15.53;;;0.80;99.90;;;;;;5071617;28;20061;-67
2021/12/07 03:26:38;;;;;;;36.37;16.30;;;0.70;99.90;;;;;;5089989;28;20127;-71
2021/12/07 03:29:06;;;;;;;38.73;17.50;;;0.70;99.90;;;;;;5090566;28;20048;-71
2021/12/07 03:31:34;;;;;;;33.17;16.57;;;0.70;99.90;;;;;;5090559;28;20113;-70
2021/12/07 03:34:02;;;;;;;31.83;15.90;;;0.70;99.90;;;;;;5090406;28;20074;-70
2021/12/07 03:36:31;;;;;;;37.83;18.40;;;0.70;99.90;;;;;;5089995;28;20116;-71
2021/12/07 03:38:59;;;;;;;39.00;17.70;;;0.70;99.90;;;;;;5091105;28;20105;-69
2021/12/07 03:41:26;;;;;;;43.13;19.27;;;0.70;99.90;;;;;;5104507;28;20081;-70
2021/12/07 03:43:53;;;;;;;33.17;16.07;;;0.70;99.90;;;;;;5109643;28;20127;-70
2021/12/07 03:46:22;;;;;;;40.77;18.13;;;0.70;99.90;;;;;;5109603;28;20434;-69
2021/12/07 03:48:51;;;;;;;40.20;18.03;;;0.70;99.90;;;;;;5110555;28;20560;-70
2021/12/07 03:51:19;;;;;;;35.23;16.30;;;0.70;99.90;;;;;;5110574;28;20051;-70
2021/12/07 03:53:46;;;;;;;39.77;18.80;;;0.70;99.90;;;;;;5109959;28;20476;-70
2021/12/07 03:56:15;;;;;;;39.97;18.17;;;0.70;99.90;;;;;;5108992;28;20092;-69
2021/12/07 03:58:42;;;;;;;39.17;18.67;;;0.70;99.90;;;;;;5110267;28;20048;-69
2021/12/07 04:01:12;;;;;;;45.53;19.73;;;0.70;99.90;;;;;;5098041;28;20044;-70
2021/12/07 04:03:41;;;;;;;36.50;17.27;;;0.70;99.90;;;;;;5085555;28;20454;-70
2021/12/07 04:06:09;;;;;;;41.93;19.63;;;0.70;99.90;;;;;;5094901;28;20044;-70
2021/12/07 04:08:38;;;;;;;41.97;18.37;;;0.70;99.90;;;;;;5088450;28;20080;-71
2021/12/07 04:11:06;;;;;;;41.27;19.47;;;0.80;99.90;;;;;;5073999;28;20133;-72
2021/12/07 04:13:33;;;;;;;42.43;19.70;;;0.80;99.90;;;;;;5086348;28;20103;-71
2021/12/07 04:16:01;;;;;;;43.83;18.37;;;0.70;99.90;;;;;;5088539;28;20461;-71
2021/12/07 04:18:28;;;;;;;40.03;17.97;;;0.80;99.90;;;;;;5090257;28;20082;-71
2021/12/07 04:20:57;;;;;;;40.17;17.63;;;0.80;99.90;;;;;;5076848;28;20044;-70
2021/12/07 04:23:24;;;;;;;41.93;18.83;;;0.80;99.90;;;;;;5084842;28;20059;-71
2021/12/07 04:25:51;;;;;;;38.47;18.50;;;0.80;99.90;;;;;;5088712;28;20097;-70
2021/12/07 04:28:19;;;;;;;40.73;17.83;;;0.80;99.90;;;;;;5089461;28;20129;-71
2021/12/07 04:30:46;;;;;;;35.57;17.37;;;0.80;99.90;;;;;;5089195;28;20097;-71
2021/12/07 04:33:14;;;;;;;41.40;17.53;;;0.80;99.90;;;;;;5089247;28;20097;-71
2021/12/07 04:35:44;;;;;;;36.20;17.93;;;0.80;99.90;;;;;;5088619;28;20097;-72
2021/12/07 04:38:14;;;;;;;37.73;17.10;;;0.80;99.90;;;;;;5089787;28;20055;-71
2021/12/07 04:40:42;;;;;;;38.43;16.77;;;0.80;99.90;;;;;;5089013;28;20040;-72
2021/12/07 04:43:09;;;;;;;39.27;18.23;;;0.90;99.90;;;;;;5089119;28;20055;-73
2021/12/07 04:45:49;;;;;;;37.70;18.23;;;0.90;99.90;;;;;;5088281;28;20079;-71
2021/12/07 04:59:23;;;;;;;38.67;16.87;;;0.90;99.90;;;;;;5089240;28;20082;-71
2021/12/07 05:01:50;;;;;;;38.33;18.20;;;0.90;99.90;;;;;;5089336;28;20410;-71
2021/12/07 05:04:21;;;;;;;37.90;16.73;;;1.00;99.90;;;;;;5089578;28;20040;-72
2021/12/07 05:06:52;;;;;;;33.80;16.10;;;1.00;99.90;;;;;;5088476;28;20509;-73
2021/12/07 05:09:34;;;;;;;38.03;18.10;;;1.00;99.90;;;;;;5089203;28;20410;-72
2021/12/07 05:15:02;;;;;;;38.43;15.73;;;1.00;99.90;;;;;;5052043;28;20171;-73
2021/12/07 05:17:56;;;;;;;36.83;17.20;;;1.00;99.90;;;;;;5088943;28;20052;-72
2021/12/07 05:39:35;;;;;;;41.00;17.20;;;1.10;99.90;;;;;;5092778;28;20121;-74
2021/12/07 05:42:05;;;;;;;39.27;17.67;;;1.10;99.90;;;;;;5092866;28;20078;-72
2021/12/07 05:44:32;;;;;;;40.53;16.73;;;1.10;99.90;;;;;;5092545;28;20047;-74
2021/12/07 05:46:59;;;;;;;34.90;16.67;;;1.10;99.90;;;;;;5091867;28;20310;-72
2021/12/07 05:49:26;;;;;;;48.13;18.03;;;1.10;99.90;;;;;;5092425;28;20101;-75
2021/12/07 05:51:53;;;;;;;39.20;16.97;;;1.10;99.90;;;;;;5092483;28;20075;-72
2021/12/07 05:54:20;;;;;;;39.20;16.53;;;1.10;99.90;;;;;;5092413;28;20418;-74
2021/12/07 05:56:48;;;;;;;40.70;18.07;;;1.10;99.90;;;;;;5091814;28;20385;-73
2021/12/07 05:59:16;;;;;;;35.70;17.27;;;1.20;99.90;;;;;;5092120;28;20113;-72
2021/12/07 06:01:43;;;;;;;38.10;16.87;;;1.20;99.90;;;;;;5092400;28;20047;-73
2021/12/07 06:04:10;;;;;;;36.83;17.03;;;1.20;99.90;;;;;;5092243;28;20109;-71
2021/12/07 06:06:38;;;;;;;40.87;17.40;;;1.20;99.90;;;;;;5091750;28;20044;-73
2021/12/07 06:09:05;;;;;;;37.47;17.07;;;1.30;99.90;;;;;;5092458;28;20097;-74
2021/12/07 06:11:32;;;;;;;39.47;17.03;;;1.30;99.90;;;;;;5092747;28;20101;-71
2021/12/07 06:14:00;;;;;;;36.40;17.73;;;1.30;99.90;;;;;;5091951;28;20419;-72
2021/12/07 06:16:30;;;;;;;37.93;16.53;;;1.30;99.90;;;;;;5091483;28;20193;-72
2021/12/07 06:18:58;;;;;;;37.97;17.57;;;1.30;99.90;;;;;;5091886;28;20503;-71
2021/12/07 06:21:25;;;;;;;36.80;16.70;;;1.30;99.90;;;;;;5091758;28;20588;-73
2021/12/07 06:23:53;;;;;;;33.00;15.57;;;1.40;99.90;;;;;;5091902;28;20052;-70
2021/12/07 06:26:20;;;;;;;33.77;14.83;;;1.40;99.90;;;;;;5090859;28;20048;-69
2021/12/07 06:28:47;;;;;;;30.47;14.13;;;1.50;99.90;;;;;;5092256;28;20052;-72
2021/12/07 06:31:14;;;;;;;33.23;14.20;;;1.50;99.90;;;;;;5090969;28;20052;-70
2021/12/07 06:33:42;;;;;;;31.63;15.10;;;1.60;99.90;;;;;;5091738;28;20052;-72
2021/12/07 06:36:10;;;;;;;29.20;12.50;;;1.60;99.90;;;;;;5090775;28;20113;-71
2021/12/07 06:38:37;;;;;;;24.60;11.93;;;1.60;99.90;;;;;;5093071;28;20388;-71
2021/12/07 06:41:05;;;;;;;30.63;13.43;;;1.70;99.90;;;;;;5093217;28;20044;-71
2021/12/07 06:43:33;;;;;;;25.87;10.33;;;1.80;99.90;;;;;;5093013;28;20052;-73
2021/12/07 06:46:00;;;;;;;18.50;9.50;;;1.80;99.90;;;;;;5092240;28;20113;-71
2021/12/07 06:48:27;;;;;;;24.40;10.00;;;1.90;99.90;;;;;;5092581;28;20044;-73
2021/12/07 06:50:55;;;;;;;18.13;9.03;;;1.90;99.90;;;;;;5092788;28;20135;-70
2021/12/07 06:53:22;;;;;;;18.67;9.23;;;2.00;99.90;;;;;;5091036;28;20141;-71
2021/12/07 06:55:50;;;;;;;17.97;9.83;;;2.00;99.90;;;;;;5090732;28;20055;-72
2021/12/07 06:58:17;;;;;;;16.63;8.50;;;2.00;99.90;;;;;;5092540;28;20048;-71
2021/12/07 07:00:44;;;;;;;18.93;8.17;;;2.00;99.90;;;;;;5093996;28;20048;-73
2021/12/07 07:03:11;;;;;;;17.83;7.03;;;2.00;99.90;;;;;;5094289;28;20048;-71
2021/12/07 07:05:38;;;;;;;15.23;7.13;;;2.10;99.90;;;;;;5093964;28;20077;-71
2021/12/07 07:08:07;;;;;;;13.17;6.60;;;2.10;99.90;;;;;;5094142;28;20499;-71
2021/12/07 07:10:34;;;;;;;13.83;6.27;;;2.20;99.90;;;;;;5094323;28;20056;-72
2021/12/07 07:13:01;;;;;;;13.63;5.17;;;2.20;99.90;;;;;;5094107;28;20579;-72
2021/12/07 07:15:28;;;;;;;11.60;4.43;;;2.20;99.90;;;;;;5093598;28;20088;-71
2021/12/07 07:17:56;;;;;;;10.40;3.27;;;2.30;99.90;;;;;;5091117;28;20052;-71
2021/12/07 07:20:24;;;;;;;11.00;3.73;;;2.50;99.90;;;;;;5090807;28;20411;-72
2021/12/07 07:22:51;;;;;;;10.63;4.17;;;2.40;99.90;;;;;;5092317;28;20101;-72
2021/12/07 07:25:19;;;;;;;11.17;3.20;;;2.40;99.90;;;;;;5090523;28;20055;-72
2021/12/07 07:27:47;;;;;;;8.77;3.50;;;2.50;99.90;;;;;;5090785;28;20048;-72
2021/12/07 07:30:16;;;;;;;11.90;3.33;;;2.50;99.90;;;;;;5090641;28;20412;-73
2021/12/07 07:32:44;;;;;;;7.07;2.83;;;2.50;99.90;;;;;;5090506;28;20044;-71
2021/12/07 07:35:12;;;;;;;7.13;2.73;;;2.50;99.90;;;;;;5089557;28;20056;-71
2021/12/07 07:37:40;;;;;;;8.17;3.20;;;2.60;99.90;;;;;;5090926;28;20140;-70
2021/12/07 07:40:10;;;;;;;10.40;2.83;;;2.50;99.90;;;;;;5090183;28;20060;-73
2021/12/07 07:42:38;;;;;;;8.67;2.90;;;2.50;99.90;;;;;;5091102;28;20271;-72
2021/12/07 07:45:06;;;;;;;9.07;3.40;;;2.50;99.90;;;;;;5092078;28;20052;-70
2021/12/07 07:47:34;;;;;;;6.13;3.13;;;2.50;99.90;;;;;;5094158;28;20322;-72
2021/12/07 07:50:01;;;;;;;8.73;3.10;;;2.50;99.90;;;;;;5093604;28;20082;-72
2021/12/07 07:52:28;;;;;;;11.27;3.63;;;2.50;99.90;;;;;;5092903;28;20056;-73
2021/12/07 07:54:55;;;;;;;10.30;3.70;;;2.60;99.90;;;;;;5091354;28;20477;-72
2021/12/07 07:57:22;;;;;;;6.37;3.53;;;2.60;99.90;;;;;;5093397;28;20078;-71
2021/12/07 07:59:50;;;;;;;9.53;3.53;;;2.60;99.90;;;;;;5094301;28;20075;-70
2021/12/07 08:02:17;;;;;;;9.83;3.13;;;2.50;99.90;;;;;;5094278;28;20048;-74
2021/12/07 08:04:44;;;;;;;10.63;3.63;;;2.60;99.90;;;;;;5093744;28;20048;-71
2021/12/07 08:07:12;;;;;;;12.10;4.40;;;2.60;99.90;;;;;;5093704;28;20040;-74
2021/12/07 08:09:39;;;;;;;12.70;4.50;;;2.50;99.90;;;;;;5093887;28;20089;-75
2021/12/07 08:12:06;;;;;;;10.93;3.50;;;2.50;99.90;;;;;;5093670;28;20052;-71
2021/12/07 08:14:34;;;;;;;7.30;3.63;;;2.50;99.90;;;;;;5092503;28;20048;-73
2021/12/07 08:17:03;;;;;;;6.60;3.80;;;2.50;99.90;;;;;;5093339;28;20048;-73
2021/12/07 08:19:30;;;;;;;11.23;4.23;;;2.50;99.90;;;;;;5095109;28;20242;-73
2021/12/07 08:21:57;;;;;;;10.47;4.13;;;2.50;99.90;;;;;;5098865;28;20047;-75
2021/12/07 08:24:24;;;;;;;9.23;4.57;;;2.40;99.90;;;;;;5095205;28;20113;-73
2021/12/07 08:26:51;;;;;;;14.27;4.87;;;2.40;99.90;;;;;;5096036;28;20058;-75
2021/12/07 08:29:19;;;;;;;12.53;4.77;;;2.40;99.90;;;;;;5096285;28;20109;-74
2021/12/07 08:31:46;;;;;;;12.43;4.97;;;2.40;99.90;;;;;;5095888;28;20055;-76
2021/12/07 08:34:14;;;;;;;12.73;4.63;;;2.50;99.90;;;;;;5095584;28;20097;-75
2021/12/07 08:36:41;;;;;;;13.10;5.40;;;2.40;99.90;;;;;;5096467;28;20040;-73
2021/12/07 08:39:10;;;;;;;13.97;4.80;;;2.40;99.90;;;;;;5096668;28;20139;-75
2021/12/07 08:41:37;;;;;;;14.73;4.57;;;2.50;99.90;;;;;;5095703;28;20561;-75
2021/12/07 08:44:05;;;;;;;13.53;4.40;;;2.40;99.90;;;;;;5095246;28;20044;-74
2021/12/07 08:46:32;;;;;;;10.47;3.90;;;2.40;99.90;;;;;;5093998;28;20124;-72
2021/12/07 08:48:59;;;;;;;9.40;4.00;;;2.30;99.90;;;;;;5095872;28;20051;-75
2021/12/07 08:51:27;;;;;;;9.83;4.50;;;2.30;99.90;;;;;;5098475;28;20052;-76
2021/12/07 08:54:00;;;;;;;14.17;4.70;;;2.30;99.90;;;;;;5097145;28;20048;-77
2021/12/07 09:01:57;;;;;;;13.67;5.30;;;2.40;99.90;;;;;;5094431;28;20059;-72
2021/12/07 09:04:25;;;;;;;13.83;5.13;;;2.50;99.90;;;;;;5094592;28;20055;-74
2021/12/07 09:06:53;;;;;;;11.47;5.10;;;2.40;99.90;;;;;;5093568;28;20056;-75
2021/12/07 09:09:20;;;;;;;13.07;5.43;;;2.40;99.90;;;;;;5095673;28;20235;-74
2021/12/07 09:11:48;;;;;;;9.47;4.77;;;2.30;99.90;;;;;;5094924;28;20055;-75
2021/12/07 09:14:17;;;;;;;11.70;4.93;;;2.30;99.90;;;;;;5096169;28;20048;-76
2021/12/07 09:16:46;;;;;;;13.07;5.23;;;2.30;99.90;;;;;;5096107;28;20087;-78
2021/12/07 09:19:13;;;;;;;14.07;5.47;;;2.30;99.90;;;;;;5096733;28;20048;-79
2021/12/07 09:21:41;;;;;;;16.80;5.27;;;2.30;99.90;;;;;;5096425;28;20085;-82
2021/12/07 09:24:12;;;;;;;12.67;5.43;;;2.20;99.90;;;;;;5094929;28;20044;-75
2021/12/07 09:26:39;;;;;;;18.53;5.43;;;2.10;99.90;;;;;;5093570;28;20048;-74
2021/12/07 09:29:07;;;;;;;14.03;5.37;;;2.10;99.90;;;;;;5093631;28;20044;-74
2021/12/07 09:31:35;;;;;;;16.70;5.77;;;2.10;99.90;;;;;;5093436;28;20121;-75
2021/12/07 09:34:03;;;;;;;14.90;5.97;;;2.10;99.90;;;;;;5093701;28;20105;-74
2021/12/07 09:36:31;;;;;;;11.30;5.67;;;2.00;99.90;;;;;;5092131;28;20415;-73
2021/12/07 09:38:58;;;;;;;11.50;5.57;;;2.00;99.90;;;;;;5094273;28;20553;-79
2021/12/07 09:41:27;;;;;;;22.63;5.80;;;2.00;99.90;;;;;;5095442;28;20101;-76
2021/12/07 09:43:55;;;;;;;13.83;6.00;;;2.00;99.90;;;;;;5096771;28;20105;-82
2021/12/07 09:46:22;;;;;;;14.83;5.47;;;2.10;99.90;;;;;;5095556;28;20476;-75
2021/12/07 09:48:49;;;;;;;15.50;5.73;;;2.10;99.90;;;;;;5096168;28;20049;-77
2021/12/07 09:51:19;;;;;;;13.10;6.30;;;2.10;99.90;;;;;;5095942;28;20048;-76
2021/12/07 09:53:48;;;;;;;21.00;7.70;;;2.10;99.90;;;;;;5095832;28;20101;-76
2021/12/07 09:56:18;;;;;;;50.47;14.37;;;2.10;99.90;;;;;;5094410;28;20204;-76
2021/12/07 09:58:48;;;;;;;45.70;15.10;;;2.00;99.90;;;;;;5094983;28;20056;-75
2021/12/07 10:01:15;;;;;;;40.17;14.07;;;2.10;99.90;;;;;;5097077;28;20431;-75
2021/12/07 10:03:43;;;;;;;18.93;8.03;;;2.10;99.90;;;;;;5095163;28;20056;-82
2021/12/07 10:06:10;;;;;;;21.27;7.73;;;2.00;99.90;;;;;;5094913;28;20048;-82
2021/12/07 10:08:38;;;;;;;19.50;7.93;;;2.00;99.90;;;;;;5099690;28;20124;-78
2021/12/07 10:11:09;;;;;;;24.03;8.70;;;2.00;99.90;;;;;;5099813;28;20078;-76
2021/12/07 10:13:38;;;;;;;21.33;8.10;;;2.10;99.90;;;;;;5099475;28;20048;-77
2021/12/07 10:16:08;;;;;;;19.70;7.77;;;2.10;99.90;;;;;;5098808;28;20453;-79
2021/12/07 10:18:37;;;;;;;19.30;7.33;;;2.20;99.90;;;;;;5100187;28;20084;-75
2021/12/07 10:21:09;;;;;;;27.60;7.83;;;2.30;99.90;;;;;;5098906;28;20044;-76
2021/12/07 10:23:38;;;;;;;13.80;7.00;;;2.30;99.90;;;;;;5098971;28;20052;-76
2021/12/07 10:26:10;;;;;;;18.10;7.90;;;2.40;99.90;;;;;;5098464;28;20171;-75
2021/12/07 10:28:39;;;;;;;15.93;8.30;;;2.40;99.90;;;;;;5098750;28;20117;-77
2021/12/07 10:31:25;;;;;;;21.63;8.53;;;2.50;99.90;;;;;;5099352;28;20044;-76
2021/12/07 10:33:54;;;;;;;18.10;7.20;;;2.60;99.90;;;;;;5098389;28;20086;-80
2021/12/07 10:36:24;;;;;;;17.33;7.70;;;2.70;99.90;;;;;;5097474;28;20101;-75
2021/12/07 10:38:56;;;;;;;21.00;8.10;;;2.80;99.90;;;;;;5097876;28;20050;-76
2021/12/07 10:41:25;;;;;;;15.97;6.73;;;2.90;99.90;;;;;;5098083;28;20483;-76
2021/12/07 10:43:59;;;;;;;13.90;6.70;;;3.00;99.90;;;;;;5098301;28;20060;-75
2021/12/07 10:46:56;;;;;;;15.23;6.53;;;3.10;99.90;;;;;;5098082;28;20044;-75
2021/12/07 10:49:32;;;;;;;20.92;6.53;;;3.20;99.90;;;;;;5098983;28;20569;-75
2021/12/07 10:52:28;;;;;;;12.67;4.97;;;3.20;99.90;;;;;;5098182;28;20067;-80
2021/12/07 10:55:00;;;;;;;15.93;6.20;;;3.30;99.90;;;;;;5096953;28;20048;-80
2021/12/07 10:57:30;;;;;;;16.60;5.90;;;3.30;99.90;;;;;;5097528;28;20055;-75
2021/12/07 11:00:16;;;;;;;17.27;6.13;;;3.30;99.90;;;;;;5097234;28;20093;-75
2021/12/07 11:02:47;;;;;;;20.70;7.20;;;3.20;99.90;;;;;;5097873;28;20071;-75
2021/12/07 11:05:18;;;;;;;19.97;6.53;;;3.20;99.90;;;;;;5096783;28;20463;-80
2021/12/07 11:07:46;;;;;;;12.20;4.37;;;3.20;99.90;;;;;;5099197;28;20048;-75
2021/12/07 11:10:17;;;;;;;16.83;3.83;;;3.30;99.90;;;;;;5099429;28;20044;-76
2021/12/07 11:12:51;;;;;;;16.80;4.17;;;3.30;99.90;;;;;;5099277;28;20086;-75
2021/12/07 11:15:23;;;;;;;13.83;3.93;;;3.30;99.90;;;;;;5097366;28;20059;-76
2021/12/07 11:17:54;;;;;;;12.00;4.70;;;3.30;99.90;;;;;;5099152;28;20070;-75
2021/12/07 11:20:21;;;;;;;16.30;4.70;;;3.30;99.90;;;;;;5099419;28;20348;-74
2021/12/07 11:22:51;;;;;;;12.47;4.30;;;3.30;99.90;;;;;;5099384;28;20040;-77
2021/12/07 11:31:16;;;;;;;18.13;4.13;;;3.40;99.90;;;;;;5099777;28;20055;-79
2021/12/07 11:33:45;;;;;;;12.93;4.20;;;3.40;99.90;;;;;;5099662;28;20052;-75
2021/12/07 11:36:17;;;;;;;10.70;4.30;;;3.40;99.90;;;;;;5098816;28;20056;-74
2021/12/07 11:38:44;;;;;;;18.00;4.37;;;3.40;99.90;;;;;;5097466;28;20457;-76
2021/12/07 11:41:17;;;;;;;12.47;4.63;;;3.50;99.90;;;;;;5095418;28;20129;-75
2021/12/07 11:44:01;;;;;;;12.43;4.27;;;3.40;99.90;;;;;;5098240;28;20044;-75
2021/12/07 11:46:31;;;;;;;11.27;4.33;;;3.40;99.90;;;;;;5098896;28;20044;-74
2021/12/07 11:49:15;;;;;;;11.93;4.17;;;3.40;99.90;;;;;;5097705;28;20047;-74
2021/12/07 11:51:44;;;;;;;10.63;3.90;;;3.40;99.90;;;;;;5095075;28;20048;-75
2021/12/07 11:54:11;;;;;;;13.57;3.97;;;3.50;99.90;;;;;;5094921;28;20593;-74
2021/12/07 11:56:39;;;;;;;15.33;5.00;;;3.50;99.90;;;;;;5094007;28;20044;-75
2021/12/07 11:59:07;;;;;;;10.50;4.10;;;3.40;99.90;;;;;;5094802;28;20097;-78
2021/12/07 12:01:34;;;;;;;12.20;3.80;;;3.50;99.90;;;;;;5095237;28;20059;-79
2021/12/07 12:04:02;;;;;;;12.77;4.70;;;3.40;99.90;;;;;;5098369;28;20488;-74
2021/12/07 12:06:30;;;;;;;16.67;3.83;;;3.40;99.90;;;;;;5097115;28;20124;-74
2021/12/07 12:08:58;;;;;;;10.77;4.23;;;3.50;99.90;;;;;;5098220;28;20445;-74
2021/12/07 12:11:35;;;;;;;11.77;4.50;;;3.50;99.90;;;;;;5098028;28;20105;-74
2021/12/07 12:14:21;;;;;;;16.90;5.30;;;3.60;99.90;;;;;;5097515;28;20060;-74
2021/12/07 12:16:58;;;;;;;10.73;4.13;;;3.50;99.90;;;;;;5096548;28;20044;-74
2021/12/07 12:19:32;;;;;;;11.88;3.78;;;3.50;99.90;;;;;;5097742;28;20070;-75
2021/12/07 12:22:08;;;;;;;12.33;3.30;;;3.60;99.90;;;;;;5097294;28;20058;-77
2021/12/07 12:24:44;;;;;;;14.90;4.70;;;3.60;99.90;;;;;;5093659;28;20044;-78
2021/12/07 12:27:15;;;;;;;14.47;3.77;;;3.60;99.90;;;;;;5094002;28;20119;-75
2021/12/07 12:29:43;;;;;;;11.43;3.57;;;3.60;99.90;;;;;;5095320;28;20048;-74
2021/12/07 12:32:11;;;;;;;11.40;3.47;;;3.60;99.90;;;;;;5097680;28;20105;-75
2021/12/07 12:34:48;;;;;;;11.57;3.67;;;3.60;99.90;;;;;;5097543;28;20512;-75
2021/12/07 12:37:20;;;;;;;15.50;3.67;;;3.70;99.90;;;;;;5095701;28;20048;-75
2021/12/07 12:39:52;;;;;;;12.30;3.43;;;3.70;99.90;;;;;;5095593;28;20052;-75
2021/12/07 12:42:26;;;;;;;11.30;3.73;;;3.70;99.90;;;;;;5097125;28;20089;-77
2021/12/07 12:45:02;;;;;;;18.87;4.57;;;3.70;99.90;;;;;;5096512;28;20077;-77
2021/12/07 12:47:30;;;;;;;11.87;3.83;;;3.70;99.90;;;;;;5096819;28;20491;-74
2021/12/07 12:50:11;;;;;;;14.37;4.20;;;3.70;99.90;;;;;;5096708;28;20052;-78
2021/12/07 12:52:55;;;;;;;11.53;3.13;;;3.80;99.90;;;;;;5179556;27;20384;-74
2021/12/07 12:55:36;;;;;;;9.97;3.67;;;3.90;99.90;;;;;;5137579;27;20044;-77
2021/12/07 12:58:06;;;;;;;11.07;3.97;;;4.10;99.90;;;;;;5133761;28;20237;-74
2021/12/07 13:01:09;;;;;;;17.23;3.87;;;4.30;99.90;;;;;;5135018;28;20055;-73
2021/12/07 13:03:53;;;;;;;14.90;3.60;;;5.00;99.90;;;;;;5133413;27;20043;-77
2021/12/07 13:06:23;;;;;;;13.65;3.72;;;4.80;99.90;;;;;;5132852;28;20130;-74
2021/12/07 13:08:57;;;;;;;15.95;3.67;;;4.70;99.90;;;;;;5134352;28;20043;-75
2021/12/07 13:11:38;;;;;;;15.40;4.45;;;4.70;99.90;;;;;;5133200;28;20047;-75
2021/12/07 13:14:06;;;;;;;12.73;3.15;;;4.60;99.90;;;;;;5133743;27;20113;-74
2021/12/07 13:16:34;;;;;;;11.50;2.78;;;4.50;99.90;;;;;;5133986;28;20100;-78
2021/12/07 13:19:04;;;;;;;11.20;2.67;;;4.30;99.90;;;;;;5133822;28;20043;-74
2021/12/07 13:21:33;;;;;;;17.20;3.40;;;4.20;99.90;;;;;;5134268;28;20047;-73
2021/12/07 13:24:04;;;;;;;12.93;3.03;;;4.20;99.90;;;;;;5133976;27;20044;-74
2021/12/07 13:26:34;;;;;;;15.53;3.60;;;4.30;99.90;;;;;;5133654;28;20439;-73
2021/12/07 13:29:04;;;;;;;15.32;3.25;;;4.20;99.90;;;;;;5132679;28;20552;-74
2021/12/07 13:31:38;;;;;;;11.43;3.10;;;4.10;99.90;;;;;;5133874;28;20464;-75
2021/12/07 13:34:06;;;;;;;10.70;2.90;;;4.10;99.90;;;;;;5133554;27;20062;-76
2021/12/07 13:36:37;;;;;;;10.60;3.07;;;4.00;99.90;;;;;;5133373;28;20410;-76
2021/12/07 13:39:24;;;;;;;8.07;2.70;;;3.90;99.90;;;;;;5133243;28;20128;-75
2021/12/07 13:41:57;;;;;;;9.38;2.78;;;3.90;99.90;;;;;;5130368;28;20041;-74
2021/12/07 13:44:25;;;;;;;10.83;2.70;;;3.90;99.90;;;;;;5132852;27;20138;-79
2021/12/07 13:46:53;;;;;;;16.07;4.47;;;3.90;99.90;;;;;;5131788;28;20047;-77
2021/12/07 13:49:21;;;;;;;12.57;3.27;;;3.80;99.90;;;;;;5131681;28;20120;-74
2021/12/07 13:51:48;;;;;;;9.13;3.07;;;3.90;99.90;;;;;;5131771;28;20484;-74
2021/12/07 13:54:19;;;;;;;11.20;3.23;;;3.80;99.90;;;;;;5132805;27;20047;-74
2021/12/07 13:56:47;;;;;;;11.67;4.03;;;3.80;99.90;;;;;;5132803;28;20048;-74
2021/12/07 13:59:18;;;;;;;11.93;3.83;;;3.70;99.90;;;;;;5132976;28;20071;-74
2021/12/07 14:01:52;;;;;;;11.43;3.40;;;3.70;99.90;;;;;;5132734;28;20055;-75
2021/12/07 14:04:20;;;;;;;9.73;2.90;;;3.60;99.90;;;;;;5118976;28;20078;-79
2021/12/07 14:06:48;;;;;;;7.83;2.87;;;3.70;99.90;;;;;;5118800;28;20075;-77
2021/12/07 14:09:18;;;;;;;16.93;4.20;;;3.70;99.90;;;;;;5119520;28;20515;-74
2021/12/07 14:11:50;;;;;;;12.53;3.33;;;3.70;99.90;;;;;;5119171;28;20039;-73
2021/12/07 14:14:18;;;;;;;15.13;4.03;;;3.70;99.90;;;;;;5120603;28;20051;-74
2021/12/07 14:16:46;;;;;;;13.70;3.30;;;3.70;99.90;;;;;;5118200;28;20040;-75
2021/12/07 14:19:13;;;;;;;13.30;3.20;;;3.70;99.90;;;;;;5118404;28;20040;-74
2021/12/07 14:21:40;;;;;;;13.13;3.53;;;3.70;99.90;;;;;;5119270;28;20059;-76